Impacts METAR Board
IDs:

KRWV - Caldwell Muni, TX, US

Updated at: 1000 UTC 26 May 2019
Potential Impact None Slight Moderate High
Time 25/22Z 25/23Z 26/00Z 26/01Z 26/02Z 26/03Z 26/04Z 26/05Z 26/06Z 26/07Z 26/08Z 26/09Z 26/10Z
Temp89 89 87 83 79 78 76 76 75 74 74 74 74
Dewpt68 67 67 68 67 68 69 70 71 72 72 72 72
Altim29.99 29.99 29.99 29.99 30.00 30.01 30.03 30.03 30.04 30.03 30.03 30.03 30.04
VIS10 10 10 10 10 10 10 10 10 10 10 10 3.5
CIG-- -- -- -- -- -- -- -- -- 12 12 14 17
CoverSCTSCTSCTCLRCLRCLRCLRCLRSCTOVCOVCOVCOVC
FltCatVFRVFRVFRVFRVFRVFRVFRVFRVFRMVFRMVFRMVFRMVFR
WX------------------------BR
WDir160160150150160160150160170150160160150
WSpd12 12 12 10 6 7 10 10 7 10 8 7 7
WGst-- 18 -- -- -- -- -- 14 -- -- -- -- --
Raw hourly METARs
KRWV 252155Z AUTO 16012KT 10SM SCT050 SCT060 32/20 A2999 RMK AO2 T03180201
KRWV 252255Z AUTO 16012G18KT 10SM SCT060 32/19 A2999 RMK AO2 T03160194
KRWV 252355Z AUTO 15012KT 10SM SCT050 30/20 A2999 RMK AO2 T03050197 10327 20299 403270232
KRWV 260055Z AUTO 15010KT 10SM CLR 29/20 A2999 RMK AO2 T02860200
KRWV 260155Z AUTO 16006KT 10SM CLR 26/20 A3000 RMK AO2 T02630197
KRWV 260255Z AUTO 16007KT 10SM CLR 26/20 A3001 RMK AO2 T02550199
KRWV 260355Z AUTO 15010KT 10SM CLR 25/20 A3003 RMK AO2 T02470204
KRWV 260455Z AUTO 16010G14KT 10SM CLR 24/21 A3003 RMK AO2 T02430210
KRWV 260555Z AUTO 17007KT 10SM SCT014 24/22 A3004 RMK AO2 T02380216 10304 20237
KRWV 260655Z AUTO 15010KT 10SM OVC012 23/22 A3003 RMK AO2 T02350220
KRWV 260755Z AUTO 16008KT 10SM BKN012 BKN017 OVC026 24/22 A3003 RMK AO2 T02360221
KRWV 260855Z AUTO 16007KT 10SM BKN014 BKN019 OVC029 23/22 A3003 RMK AO2 T02350223
KRWV 260955Z AUTO 15007KT 3 1/2SM BR BKN017 BKN032 OVC039 23/22 A3004 RMK AO2 T02340222